Palonegro Airport
SKBG : now visible

Airfield :











YOU CAN JOIN US ON...

 
LOGIN :

Register | Disclaimer

   EN    FR    IT 

 









Legend :    VFR   Marginal VFR   IFR   Intensive IFR   Very Intensive IFR
Visi :
Ceiling :
>= 8 km
>= 3000ft
5 to 8 km
1000 to 3000 ft
1500m to 5 km
500 to 1000 ft
800 to 1500m
200 to 500 ft
< 800m
< 200 ft
Symbols :   Thunderstorms  Fog  Heavy snow  Heavy precipitations  Wind > 20 kt






- Airport Elevation : 3897 ft
- IATA code : BGA


SKBG - Palonegro

CURRENT METAR :
  • 152100Z 34006KT 9999 FEW015 SCT240 24/19 A2993 WS R35

EXPIRED METARs :
  • 152000Z 35007KT 9999 SCT015 SCT070 25/20 A2994 WS R35
  • 151900Z 32008KT 9999 VCSH SCT015 SCT070 25/19 A2997 WS R35 RMK VCSH/SE

TAF TAF SKBG
Valid from the 15 at 18:00 until the 16 at 18:00 UTC


151630Z 1518/1618 32010KT 9999 SCT015 SCT090
TEMPO 1520/1524 5000 DZRA BCFG BKN013
BECMG 1600/1602 VRB02KT
TEMPO 1609/1612 4000 BCFG SCT007 TX28/1519Z TN18/1611Z



MET'MAP, your aeronautical weather chart ! - Copyright ORBIFLY December 2007 - Disclaimer

ORBIFLY MET'MAP TEAM :

Programming & Development : Alexandra Zaïnal
Concept & Development : Baudouin d'Aumeries
Co-Development & Prog : Marc-Olivier Méhu
Technical & hardware support : Manuel Goepfert

Contact : metmap@orbifly.com




SOURCES & CREDITS :

   NOAA       Earth
Advisory